EDHI

Hamburg-Finkenwerder Airport

Hamburg, Germany
METAR EDHI 150320Z AUTO 25003KT 9999 // FEW030/// BKN120/// 16/14 Q1015
Observed Flight Rules
Aug-15 @ 03:20 UTC (14 minutes ago) Visual Flight Rules
Wind Visibility Clouds
250° at 3 knots 10,000+ meters
  • Few at 3,000' AGL
  • Broken at 12,000' AGL
Temperatures Readings
Current 16°C / 61°F
Dewpoint 14°C / 57°F
Humidity 88%
Altimeter 29.97" Hg
Pressure 1015 hPa
Elevation 13
METAR EDHI 150320Z AUTO 25003KT 9999 // FEW030/// BKN120/// 16/14 Q1015
Observed Flight Rules
Aug-15 @ 03:20 UTC
(14 minutes ago)
VFR
Wind Visibility
250° at 3 knots 10,000+ meters
Clouds
  • Few at 3,000' AGL
  • Broken at 12,000' AGL
Temperature Dewpoint
16°C / 61°F 14°C / 57°F
Humidity Altimeter Pressure
88% 29.97" Hg 1015 hPa